Terminal Aerodrome Forecast
Issued by NWS Duluth, MN

Home | Current Version | Previous Version | Text Only | Print | Product List | Glossary On
Versions: 1 2 3 4 5 6 7 8 9 10 11 12 13 14 15 16 17 18 19 20 21 22 23 24
978
FTUS43 KDLH 261841 AAB
TAFDLH
TAF AMD
KDLH 261841Z 2619/2718 03010G17KT 3SM -SN BR BKN009 OVC012
      TEMPO 2619/2620 1SM -SNPL BR
     FM262100 03010KT P6SM OVC012
     FM270100 02008KT 5SM BR OVC015
     FM271100 35009KT P6SM OVC020
     FM271500 33010G17KT P6SM OVC025=

USA.gov is the U.S. government's official web portal to all federal, state and local government web resources and services.